Time;durP1;ratioP1;P1;durP2;ratioP2;P2;SDS_P1;SDS_P2;PMS_P1;PMS_P2;Temp;Humidity;BMP_temperature;BMP_pressure;BME280_temperature;BME280_humidity;BME280_pressure;Samples;Min_cycle;Max_cycle;Signal;HPM_P1;HPM_P2
2021/06/01 00:00:09;;;;;;;5.10;2.10;;;17.80;92.20;;;;;;5065902;28;20198;-76
2021/06/01 00:02:36;;;;;;;2.90;2.08;;;17.70;92.80;;;;;;5065200;28;20209;-76
2021/06/01 00:05:03;;;;;;;3.20;2.20;;;17.70;93.40;;;;;;5059088;28;20210;-77
2021/06/01 00:07:30;;;;;;;2.55;2.35;;;17.60;93.80;;;;;;5063667;28;20198;-77
2021/06/01 00:09:58;;;;;;;3.60;2.25;;;17.50;94.30;;;;;;5065438;28;20202;-77
2021/06/01 00:12:24;;;;;;;13.25;2.75;;;17.50;94.20;;;;;;5065548;28;20208;-77
2021/06/01 00:14:51;;;;;;;3.30;2.40;;;17.50;93.90;;;;;;5065437;28;20213;-76
2021/06/01 00:17:18;;;;;;;2.97;2.67;;;17.40;94.30;;;;;;5065111;28;20209;-77
2021/06/01 00:19:44;;;;;;;2.95;2.45;;;17.40;94.40;;;;;;5065436;28;20266;-76
2021/06/01 00:22:10;;;;;;;3.08;2.78;;;17.30;94.50;;;;;;5066000;28;20239;-77
2021/06/01 00:24:37;;;;;;;4.60;2.47;;;17.30;94.50;;;;;;5065394;28;20237;-77
2021/06/01 00:27:05;;;;;;;3.75;2.38;;;17.30;94.50;;;;;;5064728;28;20201;-76
2021/06/01 00:29:33;;;;;;;9.77;3.17;;;17.20;95.60;;;;;;5063715;28;20205;-76
2021/06/01 00:31:59;;;;;;;8.60;2.78;;;17.20;95.90;;;;;;5065027;28;20205;-76
2021/06/01 00:34:25;;;;;;;3.55;2.45;;;17.20;96.00;;;;;;5063183;28;20215;-76
2021/06/01 00:36:52;;;;;;;2.72;2.50;;;17.10;96.10;;;;;;5066000;28;20203;-76
2021/06/01 00:39:18;;;;;;;2.97;2.15;;;17.10;96.80;;;;;;5063701;28;20208;-76
2021/06/01 00:41:45;;;;;;;3.17;2.15;;;17.10;97.20;;;;;;5064613;28;20208;-77
2021/06/01 00:44:13;;;;;;;3.10;2.83;;;17.00;97.40;;;;;;5064293;28;20295;-76
2021/06/01 00:46:39;;;;;;;4.68;2.95;;;17.00;97.50;;;;;;5061040;28;20231;-76
2021/06/01 00:49:05;;;;;;;2.55;2.22;;;16.90;98.70;;;;;;5065126;28;20204;-76
2021/06/01 00:51:32;;;;;;;5.93;2.33;;;16.80;98.60;;;;;;5065445;28;20201;-76
2021/06/01 00:54:00;;;;;;;2.97;2.28;;;16.70;99.30;;;;;;5064899;28;20200;-76
2021/06/01 00:56:27;;;;;;;3.30;2.40;;;16.70;99.10;;;;;;5064280;28;20209;-76
2021/06/01 00:58:53;;;;;;;5.93;2.58;;;16.70;99.60;;;;;;5064638;28;20205;-75
2021/06/01 01:01:21;;;;;;;10.07;3.00;;;16.70;99.60;;;;;;5060404;28;20200;-76
2021/06/01 01:03:56;;;;;;;5.78;2.70;;;16.70;99.90;;;;;;5063956;28;20243;-76
2021/06/01 01:06:39;;;;;;;4.80;2.63;;;16.60;99.90;;;;;;5064627;28;20207;-76
2021/06/01 01:09:18;;;;;;;2.85;2.28;;;16.40;99.90;;;;;;5063897;28;20201;-76
2021/06/01 01:11:54;;;;;;;5.05;3.13;;;16.40;99.90;;;;;;5063945;28;20197;-77
2021/06/01 01:17:13;;;;;;;2.53;2.33;;;16.30;99.90;;;;;;5055249;28;20209;-78
2021/06/01 01:25:39;;;;;;;7.50;2.70;;;16.20;99.90;;;;;;5059769;28;20236;-78
2021/06/01 01:28:18;;;;;;;10.15;2.70;;;16.10;99.90;;;;;;5064920;28;20240;-78
2021/06/01 01:33:34;;;;;;;3.20;2.90;;;16.00;99.90;;;;;;5064685;28;20294;-78
2021/06/01 01:41:34;;;;;;;3.03;2.83;;;15.90;99.90;;;;;;5064791;28;20200;-77
2021/06/01 01:49:33;;;;;;;4.82;2.97;;;15.70;99.90;;;;;;5058029;28;20195;-76
2021/06/01 01:54:49;;;;;;;5.32;3.00;;;15.50;99.90;;;;;;5064453;28;20233;-77
2021/06/01 02:05:21;;;;;;;3.67;2.85;;;15.20;99.90;;;;;;5061712;28;20217;-78
2021/06/01 02:07:47;;;;;;;10.25;2.90;;;15.10;99.90;;;;;;5057946;28;20202;-78
2021/06/01 02:10:14;;;;;;;9.02;3.50;;;15.00;99.90;;;;;;5062600;28;20200;-77
2021/06/01 02:23:48;;;;;;;2.80;2.53;;;14.90;99.90;;;;;;5062883;28;20292;-76
2021/06/01 02:26:25;;;;;;;4.95;3.63;;;14.80;99.90;;;;;;5062080;28;20217;-76
2021/06/01 02:28:54;;;;;;;3.22;2.97;;;14.70;99.90;;;;;;5063024;28;21051;-77
2021/06/01 02:31:29;;;;;;;3.40;2.92;;;14.60;99.90;;;;;;5055778;28;20254;-76
2021/06/01 02:36:55;;;;;;;4.35;3.00;;;14.50;99.90;;;;;;5064513;28;20209;-76
2021/06/01 02:39:22;;;;;;;2.88;2.67;;;14.50;99.90;;;;;;5058246;28;20599;-76
2021/06/01 02:49:55;;;;;;;4.18;3.42;;;14.30;99.90;;;;;;5066451;28;20208;-76
2021/06/01 02:52:23;;;;;;;5.55;2.83;;;14.30;99.90;;;;;;5066824;28;20204;-76
2021/06/01 02:54:50;;;;;;;2.72;2.47;;;14.20;99.90;;;;;;5065488;28;20245;-76
2021/06/01 02:57:18;;;;;;;7.88;3.17;;;14.20;99.90;;;;;;5066812;28;20203;-75
2021/06/01 02:59:45;;;;;;;6.45;3.70;;;14.20;99.90;;;;;;5066521;28;20224;-77
2021/06/01 03:02:11;;;;;;;3.10;2.80;;;14.20;99.90;;;;;;5067155;28;20205;-76
2021/06/01 03:04:49;;;;;;;4.60;3.00;;;14.20;99.90;;;;;;5066072;28;20240;-76
2021/06/01 03:07:16;;;;;;;3.95;2.92;;;14.10;99.90;;;;;;5067088;28;20199;-76
2021/06/01 03:09:43;;;;;;;3.25;2.50;;;14.10;99.90;;;;;;5066225;28;20201;-77
2021/06/01 03:12:20;;;;;;;2.83;2.63;;;14.00;99.90;;;;;;5065365;28;20299;-76
2021/06/01 03:14:47;;;;;;;4.07;2.55;;;13.90;99.90;;;;;;5066444;28;20225;-77
2021/06/01 03:17:13;;;;;;;4.20;3.30;;;13.80;99.90;;;;;;5066124;28;20396;-76
2021/06/01 03:19:40;;;;;;;7.57;3.38;;;13.80;99.90;;;;;;5065928;28;20197;-77
2021/06/01 03:30:14;;;;;;;3.10;2.80;;;13.90;99.90;;;;;;5062999;28;20231;-76
2021/06/01 03:32:41;;;;;;;4.55;3.40;;;13.90;99.90;;;;;;5062936;28;20205;-76
2021/06/01 03:35:09;;;;;;;8.00;3.75;;;14.00;99.90;;;;;;5066705;28;20197;-77
2021/06/01 03:40:18;;;;;;;4.57;3.15;;;13.90;99.90;;;;;;5063523;28;20193;-77
2021/06/01 03:42:45;;;;;;;4.60;3.15;;;13.90;99.90;;;;;;5065452;28;20205;-76
2021/06/01 03:45:12;;;;;;;3.60;3.28;;;13.90;99.90;;;;;;5065465;28;20225;-76
2021/06/01 03:47:40;;;;;;;4.47;3.72;;;13.70;99.90;;;;;;5064709;28;20209;-76
2021/06/01 03:50:08;;;;;;;4.72;3.85;;;13.60;99.90;;;;;;5065903;28;20201;-77
2021/06/01 03:52:35;;;;;;;4.18;3.60;;;13.60;99.90;;;;;;5065815;28;20197;-77
2021/06/01 03:55:01;;;;;;;7.20;3.15;;;13.50;99.90;;;;;;5066543;28;20198;-77
2021/06/01 03:57:29;;;;;;;3.80;3.25;;;13.40;99.90;;;;;;5065300;28;20206;-77
2021/06/01 03:59:55;;;;;;;3.20;3.00;;;13.30;99.90;;;;;;5066583;28;20205;-77
2021/06/01 04:02:22;;;;;;;3.53;3.05;;;13.40;99.90;;;;;;5066047;28;20724;-77
2021/06/01 04:04:50;;;;;;;9.93;3.03;;;13.30;99.90;;;;;;5066719;28;20270;-78
2021/06/01 04:07:16;;;;;;;3.90;3.47;;;13.30;99.90;;;;;;5066140;28;20196;-77
2021/06/01 04:09:43;;;;;;;4.80;2.83;;;13.20;99.90;;;;;;5066652;28;20639;-76
2021/06/01 04:12:11;;;;;;;6.32;3.40;;;13.20;99.90;;;;;;5066767;28;20250;-76
2021/06/01 04:14:39;;;;;;;5.90;3.38;;;13.20;99.90;;;;;;5065972;28;20201;-77
2021/06/01 04:17:06;;;;;;;5.75;2.95;;;13.20;99.90;;;;;;5065818;28;20200;-77
2021/06/01 04:19:33;;;;;;;5.50;3.90;;;13.20;99.90;;;;;;5065623;28;20203;-77
2021/06/01 04:21:59;;;;;;;4.30;3.40;;;13.10;99.90;;;;;;5066843;28;20269;-76
2021/06/01 04:24:27;;;;;;;4.47;3.13;;;13.10;99.90;;;;;;5066560;28;20206;-77
2021/06/01 04:26:54;;;;;;;6.18;2.88;;;13.10;99.90;;;;;;5066051;28;20544;-77
2021/06/01 04:29:20;;;;;;;3.70;3.00;;;13.20;99.90;;;;;;5066273;28;20200;-77
2021/06/01 04:31:48;;;;;;;11.38;4.10;;;13.20;99.90;;;;;;5066681;28;20213;-77
2021/06/01 04:34:14;;;;;;;5.25;3.45;;;13.20;99.90;;;;;;5065486;28;20205;-77
2021/06/01 04:36:41;;;;;;;6.90;3.65;;;13.20;99.90;;;;;;5066160;28;20236;-76
2021/06/01 04:39:07;;;;;;;7.20;3.50;;;13.20;99.90;;;;;;5065204;28;20227;-77
2021/06/01 04:41:34;;;;;;;8.60;3.15;;;13.20;99.90;;;;;;5062547;28;20560;-78
2021/06/01 04:44:01;;;;;;;6.78;3.38;;;13.30;99.90;;;;;;5062883;28;21147;-78
2021/06/01 04:46:27;;;;;;;8.52;3.67;;;13.40;99.90;;;;;;5065766;28;20221;-76
2021/06/01 04:48:55;;;;;;;5.53;2.92;;;13.70;99.90;;;;;;5066028;28;20205;-78
2021/06/01 04:51:23;;;;;;;4.00;2.92;;;13.90;99.90;;;;;;5065758;28;20778;-77
2021/06/01 04:53:50;;;;;;;7.32;3.67;;;14.10;99.90;;;;;;5064795;28;20232;-77
2021/06/01 04:56:17;;;;;;;5.63;3.70;;;14.40;99.90;;;;;;5067400;28;20331;-77
2021/06/01 04:58:44;;;;;;;4.25;3.80;;;14.40;99.90;;;;;;5062146;28;20206;-78
2021/06/01 05:01:10;;;;;;;3.50;3.20;;;14.40;99.90;;;;;;5065506;28;20227;-78
2021/06/01 05:03:38;;;;;;;7.50;3.60;;;14.40;99.90;;;;;;5064284;28;20232;-76
2021/06/01 05:06:07;;;;;;;10.95;3.40;;;14.50;99.90;;;;;;5047205;28;20229;-77
2021/06/01 05:08:34;;;;;;;6.03;4.05;;;14.60;99.90;;;;;;5063230;28;20209;-78
2021/06/01 05:11:01;;;;;;;5.25;3.70;;;14.50;99.90;;;;;;5044333;28;20202;-76
2021/06/01 05:13:27;;;;;;;5.50;3.78;;;14.50;99.90;;;;;;5064442;28;20202;-77
2021/06/01 05:15:54;;;;;;;5.88;3.50;;;14.40;99.90;;;;;;5063546;28;20209;-76
2021/06/01 05:18:21;;;;;;;5.88;3.28;;;14.60;99.90;;;;;;5064653;28;20212;-76
2021/06/01 05:20:48;;;;;;;6.28;3.38;;;14.50;99.90;;;;;;5043003;28;20209;-77
2021/06/01 05:23:16;;;;;;;7.60;4.18;;;14.50;99.90;;;;;;5062309;28;20206;-77
2021/06/01 05:25:44;;;;;;;4.18;3.22;;;14.60;99.90;;;;;;5058141;28;20228;-77
2021/06/01 05:28:10;;;;;;;12.85;5.28;;;14.60;99.90;;;;;;5064969;28;20197;-77
2021/06/01 05:30:39;;;;;;;4.90;3.28;;;14.60;99.90;;;;;;5064446;28;20219;-77
2021/06/01 05:33:14;;;;;;;4.78;3.45;;;14.70;99.90;;;;;;5047516;28;20226;-77
2021/06/01 05:35:51;;;;;;;5.18;3.70;;;14.70;99.90;;;;;;5063640;28;20212;-77
2021/06/01 05:38:20;;;;;;;3.20;2.95;;;14.70;99.90;;;;;;5063943;28;20231;-77
2021/06/01 05:40:47;;;;;;;5.75;3.40;;;14.80;99.90;;;;;;5064900;28;20236;-77
2021/06/01 05:43:14;;;;;;;3.75;3.22;;;14.90;99.90;;;;;;5064667;28;20224;-76
2021/06/01 05:45:40;;;;;;;4.63;3.95;;;14.90;99.90;;;;;;5062987;28;20232;-77
2021/06/01 05:48:08;;;;;;;4.88;3.90;;;15.00;99.90;;;;;;5062331;28;20466;-76
2021/06/01 05:50:35;;;;;;;3.22;3.03;;;15.10;99.90;;;;;;5057765;28;20683;-76
2021/06/01 05:53:02;;;;;;;3.90;3.47;;;15.20;99.90;;;;;;5062855;28;20205;-77
2021/06/01 05:55:29;;;;;;;6.47;4.07;;;15.30;99.90;;;;;;5064809;28;20259;-76
2021/06/01 05:57:56;;;;;;;5.78;3.55;;;15.50;99.90;;;;;;5063225;28;20198;-76
2021/06/01 06:00:24;;;;;;;3.60;3.15;;;15.50;99.90;;;;;;5062997;28;20197;-76
2021/06/01 06:02:50;;;;;;;6.78;3.33;;;15.70;99.90;;;;;;5062429;28;20653;-76
2021/06/01 06:05:17;;;;;;;4.40;3.92;;;15.80;99.90;;;;;;5063170;28;20224;-76
2021/06/01 06:07:44;;;;;;;5.55;3.40;;;16.10;99.90;;;;;;5063592;28;20205;-77
2021/06/01 06:10:12;;;;;;;5.15;3.40;;;16.40;99.90;;;;;;5063016;28;20231;-77
2021/06/01 06:12:40;;;;;;;4.95;3.35;;;16.90;99.90;;;;;;5064097;28;20202;-76
2021/06/01 06:15:10;;;;;;;4.82;3.22;;;17.30;99.90;;;;;;5063623;28;20216;-76
2021/06/01 06:17:47;;;;;;;3.42;3.13;;;17.80;99.90;;;;;;5063898;28;20212;-77
2021/06/01 06:20:14;;;;;;;3.70;3.33;;;18.20;99.90;;;;;;5065043;28;20246;-76
2021/06/01 06:22:41;;;;;;;7.93;3.80;;;18.60;99.90;;;;;;5068021;28;20320;-76
2021/06/01 06:25:10;;;;;;;5.90;3.08;;;19.00;99.90;;;;;;5067819;28;20228;-77
2021/06/01 06:27:37;;;;;;;5.72;3.40;;;19.40;99.90;;;;;;5063519;28;20209;-77
2021/06/01 06:30:08;;;;;;;4.90;3.05;;;19.80;99.90;;;;;;5066425;28;20206;-76
2021/06/01 06:32:34;;;;;;;5.95;3.03;;;19.80;99.90;;;;;;5067693;28;20641;-78
2021/06/01 06:35:01;;;;;;;6.13;3.40;;;20.10;99.90;;;;;;5066901;28;20210;-76
2021/06/01 06:45:48;;;;;;;3.95;2.70;;;21.20;99.90;;;;;;5063848;28;20225;-76
2021/06/01 06:48:14;;;;;;;6.03;2.78;;;21.60;99.90;;;;;;5064229;28;20194;-77
2021/06/01 06:58:48;;;;;;;5.40;2.53;;;22.60;99.90;;;;;;5064773;28;20206;-76
2021/06/01 07:01:16;;;;;;;6.25;2.55;;;22.90;99.90;;;;;;5067126;28;20224;-77
2021/06/01 07:03:42;;;;;;;4.10;2.75;;;23.20;99.90;;;;;;5066505;28;20249;-76
2021/06/01 07:11:31;;;;;;;9.38;3.20;;;23.40;99.90;;;;;;5061766;28;20255;-77
2021/06/01 07:14:06;;;;;;;4.18;3.13;;;23.50;99.90;;;;;;5065913;28;20220;-77
2021/06/01 07:16:34;;;;;;;3.97;2.75;;;23.80;99.90;;;;;;5066087;28;20214;-77
2021/06/01 07:19:00;;;;;;;3.25;2.53;;;24.00;99.50;;;;;;5067379;28;20207;-77
2021/06/01 07:21:27;;;;;;;3.17;2.30;;;24.30;99.90;;;;;;5067012;28;20204;-77
2021/06/01 07:23:53;;;;;;;2.83;2.58;;;24.40;99.20;;;;;;5065874;28;20216;-76
2021/06/01 07:26:20;;;;;;;2.90;2.70;;;24.40;99.90;;;;;;5065909;28;20224;-77
2021/06/01 07:28:46;;;;;;;7.10;3.55;;;24.60;99.40;;;;;;5064914;28;20203;-76
2021/06/01 07:31:14;;;;;;;2.78;2.40;;;24.90;98.30;;;;;;5065664;28;20201;-77
2021/06/01 07:33:43;;;;;;;6.18;2.92;;;25.00;98.00;;;;;;5065582;28;20209;-77
2021/06/01 07:36:09;;;;;;;5.53;2.58;;;25.00;97.30;;;;;;5060567;28;20203;-77
2021/06/01 07:38:36;;;;;;;4.28;2.50;;;25.10;98.60;;;;;;5065194;28;20213;-77
2021/06/01 07:41:03;;;;;;;3.47;2.40;;;25.40;98.20;;;;;;5065966;28;20255;-77
2021/06/01 07:43:30;;;;;;;4.65;2.80;;;25.60;96.90;;;;;;5066158;28;20201;-77
2021/06/01 07:45:57;;;;;;;11.18;2.70;;;25.40;95.90;;;;;;5067245;28;20240;-77
2021/06/01 07:48:23;;;;;;;6.00;2.85;;;25.20;97.00;;;;;;5066354;28;20201;-77
2021/06/01 07:51:11;;;;;;;4.03;2.70;;;25.20;96.50;;;;;;5065988;28;20201;-76
2021/06/01 07:53:37;;;;;;;5.53;3.00;;;25.30;96.40;;;;;;5057013;28;20233;-77
2021/06/01 08:01:32;;;;;;;5.43;2.35;;;25.00;95.80;;;;;;5061874;28;20194;-77
2021/06/01 08:14:45;;;;;;;3.25;2.95;;;25.20;94.40;;;;;;5064586;28;20248;-77
2021/06/01 08:17:12;;;;;;;2.45;2.15;;;25.30;94.80;;;;;;5064502;28;20206;-77
2021/06/01 08:19:41;;;;;;;4.40;2.10;;;25.30;93.40;;;;;;5060418;28;20233;-77
2021/06/01 08:30:13;;;;;;;3.08;1.85;;;25.00;89.80;;;;;;5065272;28;20206;-77
2021/06/01 08:32:40;;;;;;;3.20;2.13;;;25.00;86.60;;;;;;5065516;28;20202;-77
2021/06/01 08:35:07;;;;;;;8.23;2.35;;;25.10;90.20;;;;;;5065652;28;20202;-77
2021/06/01 08:37:50;;;;;;;2.75;2.30;;;25.30;89.00;;;;;;5065267;28;20232;-77
2021/06/01 08:43:05;;;;;;;2.40;2.20;;;25.50;87.80;;;;;;5063543;28;20206;-77
2021/06/01 08:48:20;;;;;;;2.67;2.42;;;25.90;88.10;;;;;;5062583;28;20219;-76
2021/06/01 08:53:45;;;;;;;3.70;2.50;;;26.40;84.70;;;;;;5064527;28;20207;-77
2021/06/01 08:56:11;;;;;;;2.40;2.20;;;26.80;82.60;;;;;;5063276;28;20206;-77
2021/06/01 08:58:37;;;;;;;2.10;1.90;;;27.10;85.60;;;;;;5064250;28;20211;-76
2021/06/01 09:01:04;;;;;;;6.82;2.70;;;27.10;81.80;;;;;;5064813;28;20223;-77
2021/06/01 09:03:34;;;;;;;3.35;1.98;;;27.50;75.90;;;;;;5062873;28;20236;-77
2021/06/01 09:06:14;;;;;;;2.65;1.70;;;27.80;76.40;;;;;;5064208;28;20228;-77
2021/06/01 09:08:50;;;;;;;3.97;2.40;;;28.10;78.50;;;;;;5065033;28;20786;-76
2021/06/01 09:11:32;;;;;;;2.67;2.30;;;28.00;73.00;;;;;;5059594;28;20560;-77
2021/06/01 09:14:16;;;;;;;4.90;1.98;;;28.00;75.40;;;;;;5063084;28;20345;-76
2021/06/01 09:22:30;;;;;;;3.13;2.03;;;28.90;70.30;;;;;;5063819;28;20327;-77
2021/06/01 09:25:01;;;;;;;2.38;2.17;;;29.10;69.50;;;;;;5061842;28;20231;-77
2021/06/01 09:27:30;;;;;;;3.60;2.47;;;29.40;70.40;;;;;;5059054;28;20208;-77
2021/06/01 09:29:56;;;;;;;2.50;2.30;;;29.60;71.10;;;;;;5064118;28;20203;-77
2021/06/01 09:32:23;;;;;;;2.20;2.10;;;29.60;69.90;;;;;;5064245;28;20197;-77
2021/06/01 09:34:52;;;;;;;2.50;2.30;;;29.70;71.10;;;;;;5064457;28;20202;-77
2021/06/01 09:37:22;;;;;;;3.25;2.25;;;29.90;67.00;;;;;;5059852;28;20224;-77
2021/06/01 09:40:09;;;;;;;2.80;2.40;;;29.70;66.50;;;;;;5065636;28;20207;-77
2021/06/01 09:42:38;;;;;;;4.82;2.20;;;29.80;68.50;;;;;;5066717;28;20667;-77
2021/06/01 09:45:11;;;;;;;2.30;2.10;;;29.80;69.70;;;;;;5066367;28;20205;-77
2021/06/01 09:47:44;;;;;;;1.80;1.70;;;29.50;66.30;;;;;;5059590;28;20201;-77
2021/06/01 09:50:16;;;;;;;3.20;2.90;;;29.40;66.20;;;;;;5059449;28;20217;-78
2021/06/01 09:52:47;;;;;;;2.28;2.08;;;29.30;64.00;;;;;;5064530;28;20207;-77
2021/06/01 09:55:27;;;;;;;2.55;2.35;;;29.10;63.90;;;;;;5061862;28;20206;-77
2021/06/01 09:57:56;;;;;;;4.70;2.25;;;28.90;65.00;;;;;;5056093;28;20206;-77
2021/06/01 10:00:33;;;;;;;2.30;2.20;;;29.00;64.40;;;;;;5062771;28;20206;-77
2021/06/01 10:08:22;;;;;;;2.17;2.03;;;29.70;63.60;;;;;;5073507;28;20292;-77
2021/06/01 10:10:51;;;;;;;5.82;1.98;;;30.00;62.40;;;;;;5081987;28;20200;-77
2021/06/01 10:13:19;;;;;;;2.30;1.95;;;30.40;61.50;;;;;;5082332;28;20246;-77
2021/06/01 10:15:45;;;;;;;2.75;1.67;;;31.00;62.20;;;;;;5076546;28;20206;-77
2021/06/01 10:18:15;;;;;;;2.20;2.10;;;31.30;58.60;;;;;;5072472;28;20204;-77
2021/06/01 10:20:43;;;;;;;4.72;2.08;;;31.20;60.00;;;;;;5076025;28;20211;-77
2021/06/01 10:23:10;;;;;;;2.00;1.90;;;31.30;58.60;;;;;;5066969;28;20225;-77
2021/06/01 10:25:38;;;;;;;2.45;2.00;;;31.80;57.60;;;;;;5068747;28;20204;-77
2021/06/01 10:28:08;;;;;;;2.00;1.83;;;31.60;56.60;;;;;;5063671;28;20198;-77
2021/06/01 10:30:37;;;;;;;2.45;1.95;;;31.50;56.70;;;;;;5072111;28;20226;-77
2021/06/01 10:33:06;;;;;;;2.20;2.00;;;31.90;56.50;;;;;;5074981;28;20305;-77
2021/06/01 10:35:37;;;;;;;11.82;2.22;;;31.60;56.10;;;;;;5078741;28;20204;-77
2021/06/01 10:44:36;;;;;;;1.83;1.70;;;30.10;56.80;;;;;;5071827;28;20286;-77
2021/06/01 10:50:21;;;;;;;2.25;2.13;;;30.50;57.50;;;;;;5071982;28;20205;-77
2021/06/01 10:53:04;;;;;;;3.47;2.33;;;30.60;56.90;;;;;;5069602;28;20212;-77
2021/06/01 10:55:55;;;;;;;4.57;2.55;;;30.60;59.50;;;;;;5076915;28;20205;-77
2021/06/01 10:58:27;;;;;;;2.35;2.20;;;30.80;59.40;;;;;;5064522;28;20267;-77
2021/06/01 11:04:06;;;;;;;5.85;2.22;;;30.50;57.90;;;;;;5075879;28;20288;-77
2021/06/01 11:07:13;;;;;;;2.15;2.03;;;30.10;58.90;;;;;;5065889;28;20617;-77
2021/06/01 11:09:48;;;;;;;3.50;2.10;;;29.60;56.20;;;;;;5074508;28;20238;-77
2021/06/01 11:12:43;;;;;;;2.80;2.13;;;29.40;58.30;;;;;;5075473;28;20237;-77
2021/06/01 11:15:41;;;;;;;3.22;2.55;;;29.00;58.30;;;;;;5073598;28;20202;-77
2021/06/01 11:18:35;;;;;;;4.40;2.15;;;28.50;57.50;;;;;;5053971;28;20209;-77
2021/06/01 11:21:13;;;;;;;14.05;13.10;;;28.00;58.80;;;;;;5059516;28;20240;-77
2021/06/01 11:33:14;;;;;;;6.45;2.20;;;26.90;59.30;;;;;;5062823;28;20298;-77
2021/06/01 11:35:42;;;;;;;2.65;2.45;;;26.50;59.40;;;;;;5064441;28;20203;-77
2021/06/01 11:38:14;;;;;;;8.13;2.58;;;26.30;61.30;;;;;;5060388;28;20207;-76
2021/06/01 11:43:35;;;;;;;3.10;2.90;;;26.40;61.40;;;;;;5035251;28;20224;-77
2021/06/01 11:46:09;;;;;;;2.40;2.20;;;26.50;61.10;;;;;;5054565;28;20242;-77
2021/06/01 11:51:33;;;;;;;3.33;2.42;;;26.50;61.90;;;;;;5053253;28;20239;-77
2021/06/01 11:54:01;;;;;;;3.17;2.63;;;26.40;60.80;;;;;;5067824;28;20204;-77
2021/06/01 12:02:25;;;;;;;6.25;2.70;;;26.30;61.80;;;;;;5065378;28;20243;-78
2021/06/01 12:05:00;;;;;;;4.15;2.33;;;26.30;61.30;;;;;;5065374;28;20224;-78
2021/06/01 12:18:43;;;;;;;6.57;2.22;;;25.90;60.60;;;;;;5022900;28;20237;-77
2021/06/01 12:21:16;;;;;;;5.82;2.58;;;25.80;60.10;;;;;;5008031;28;20240;-77
2021/06/01 12:23:47;;;;;;;8.75;2.88;;;25.80;60.20;;;;;;5011938;28;20220;-78
2021/06/01 12:26:18;;;;;;;2.22;2.13;;;25.90;61.40;;;;;;5015619;28;20199;-77
2021/06/01 12:31:49;;;;;;;2.30;2.15;;;26.00;61.40;;;;;;5018043;28;20235;-77
2021/06/01 12:34:18;;;;;;;2.17;2.05;;;26.00;60.90;;;;;;5007309;28;20251;-77
2021/06/01 12:41:40;;;;;;;2.75;1.85;;;26.00;59.60;;;;;;5010731;28;20293;-77
2021/06/01 12:46:04;;;;;;;5.35;2.22;;;26.10;59.80;;;;;;5020769;28;20674;-78
2021/06/01 13:12:12;;;;;;;2.28;2.08;;;26.40;59.80;;;;;;5056968;28;20199;-78
2021/06/01 13:14:48;;;;;;;1.70;1.60;;;26.10;59.70;;;;;;5052746;28;20240;-78
2021/06/01 13:23:07;;;;;;;2.08;1.80;;;26.30;60.80;;;;;;5059497;28;20212;-79
2021/06/01 13:31:38;;;;;;;3.00;2.40;;;26.60;59.50;;;;;;5059944;28;20290;-78
2021/06/01 13:39:39;;;;;;;2.40;2.20;;;26.40;59.40;;;;;;5055003;28;20199;-78
2021/06/01 13:47:58;;;;;;;2.58;2.22;;;26.60;61.50;;;;;;5062918;28;20255;-77
2021/06/01 13:50:49;;;;;;;3.47;2.10;;;26.40;59.80;;;;;;5055367;28;20237;-78
2021/06/01 13:56:02;;;;;;;2.13;1.90;;;26.20;60.10;;;;;;5051866;28;20234;-74
2021/06/01 13:58:45;;;;;;;2.10;2.00;;;26.30;62.00;;;;;;5064402;28;20228;-75
2021/06/01 14:01:21;;;;;;;6.10;2.78;;;26.30;61.20;;;;;;5054448;28;20198;-75
2021/06/01 14:09:48;;;;;;;2.13;1.95;;;26.50;63.40;;;;;;5058938;28;20582;-75
2021/06/01 14:15:22;;;;;;;2.42;2.22;;;26.50;62.70;;;;;;5053208;28;21373;-78
2021/06/01 14:20:59;;;;;;;3.72;2.38;;;26.30;63.90;;;;;;5024111;28;20203;-77
2021/06/01 14:32:07;;;;;;;5.10;2.53;;;26.40;62.30;;;;;;5058279;28;20895;-77
2021/06/01 14:54:40;;;;;;;2.22;2.03;;;26.30;62.50;;;;;;5022138;28;20206;-77
2021/06/01 15:08:40;;;;;;;5.20;2.47;;;26.30;63.40;;;;;;5027054;28;20245;-78
2021/06/01 15:54:26;;;;;;;3.08;2.78;;;26.40;63.60;;;;;;5084031;28;20264;-77
2021/06/01 16:14:05;;;;;;;7.90;2.33;;;25.80;62.50;;;;;;5024293;28;20208;-76
2021/06/01 16:22:23;;;;;;;2.45;1.90;;;25.90;62.20;;;;;;5025410;28;20232;-77
2021/06/01 16:42:35;;;;;;;3.75;2.15;;;25.80;61.70;;;;;;5024608;28;20229;-77
2021/06/01 17:04:37;;;;;;;4.38;1.80;;;25.80;62.80;;;;;;4986362;28;20265;-76
2021/06/01 17:07:11;;;;;;;2.10;1.90;;;25.80;61.30;;;;;;4989424;28;20208;-76
2021/06/01 17:12:31;;;;;;;4.05;1.80;;;25.90;61.10;;;;;;4992529;28;20260;-77
2021/06/01 17:14:58;;;;;;;5.32;1.90;;;26.00;61.70;;;;;;4989291;28;20211;-77
2021/06/01 17:17:27;;;;;;;5.63;1.80;;;25.90;61.70;;;;;;4985299;28;20236;-77
2021/06/01 17:20:32;;;;;;;2.78;2.42;;;25.80;61.90;;;;;;4989854;28;20214;-77
2021/06/01 17:23:14;;;;;;;2.25;2.10;;;25.80;63.00;;;;;;4987547;28;20272;-76
2021/06/01 17:31:43;;;;;;;2.20;2.00;;;25.50;62.70;;;;;;4996664;28;20224;-76
2021/06/01 17:36:59;;;;;;;3.78;1.90;;;25.50;62.90;;;;;;5068009;28;20213;-76
2021/06/01 17:39:25;;;;;;;9.13;2.20;;;25.50;63.70;;;;;;5079313;28;20197;-76
2021/06/01 17:41:54;;;;;;;2.78;1.83;;;25.40;63.30;;;;;;5081210;28;20203;-77
2021/06/01 17:44:24;;;;;;;3.70;1.83;;;25.50;63.60;;;;;;5080774;28;20210;-76
2021/06/01 17:46:51;;;;;;;5.40;2.25;;;25.50;63.60;;;;;;5069504;28;20223;-77
2021/06/01 17:49:23;;;;;;;3.03;2.00;;;25.40;63.50;;;;;;5067325;28;20214;-77
2021/06/01 17:51:52;;;;;;;2.13;1.80;;;25.40;63.20;;;;;;5065332;28;20459;-75
2021/06/01 17:54:26;;;;;;;3.42;2.05;;;25.30;63.40;;;;;;5074487;28;20226;-76
2021/06/01 17:56:54;;;;;;;2.15;1.58;;;25.30;63.80;;;;;;5073977;28;20203;-77
2021/06/01 17:59:21;;;;;;;3.53;1.85;;;25.20;62.80;;;;;;5074804;28;20227;-76
2021/06/01 18:01:48;;;;;;;1.80;1.70;;;25.10;63.20;;;;;;5067834;28;20238;-77
2021/06/01 18:04:16;;;;;;;3.67;2.33;;;25.10;63.10;;;;;;5070510;28;20211;-77
2021/06/01 18:06:45;;;;;;;3.55;1.90;;;25.10;63.50;;;;;;5068401;28;20209;-76
2021/06/01 18:09:20;;;;;;;8.60;2.30;;;25.00;63.00;;;;;;5072970;28;20199;-77
2021/06/01 18:37:04;;;;;;;2.72;1.85;;;24.60;64.00;;;;;;5065915;28;20233;-76
2021/06/01 19:29:27;;;;;;;3.33;2.17;;;24.10;68.90;;;;;;5004012;28;20234;-76
2021/06/01 19:51:33;;;;;;;2.83;1.90;;;23.50;71.00;;;;;;5065973;28;20271;-77
2021/06/01 19:54:02;;;;;;;7.47;1.80;;;23.50;71.80;;;;;;5066144;28;20229;-77
2021/06/01 19:56:29;;;;;;;7.65;2.10;;;23.40;72.20;;;;;;5071926;28;20226;-77
2021/06/01 19:58:55;;;;;;;2.83;2.10;;;23.30;69.80;;;;;;5071545;28;20232;-77
2021/06/01 20:01:22;;;;;;;2.22;2.03;;;23.20;70.60;;;;;;5076698;28;20230;-77
2021/06/01 20:03:51;;;;;;;3.90;2.15;;;23.10;68.70;;;;;;5066801;28;20233;-78
2021/06/01 20:06:18;;;;;;;2.70;2.40;;;23.00;71.30;;;;;;5071847;28;20202;-77
2021/06/01 20:08:46;;;;;;;5.60;2.47;;;23.00;70.00;;;;;;5066086;28;20215;-77
2021/06/01 20:11:13;;;;;;;2.47;1.90;;;22.90;70.00;;;;;;5065878;28;20202;-78
2021/06/01 20:13:39;;;;;;;4.63;2.10;;;22.80;70.30;;;;;;5065577;28;20226;-77
2021/06/01 20:16:06;;;;;;;8.40;3.75;;;22.70;70.30;;;;;;5071462;28;20202;-77
2021/06/01 20:18:38;;;;;;;3.47;1.98;;;22.60;68.60;;;;;;5065377;28;20209;-76
2021/06/01 20:21:05;;;;;;;4.70;2.80;;;22.50;68.50;;;;;;5068298;28;20291;-76
2021/06/01 20:23:33;;;;;;;3.58;2.45;;;22.40;71.60;;;;;;5072140;28;20208;-77
2021/06/01 20:26:02;;;;;;;3.75;2.00;;;22.40;71.20;;;;;;5070124;28;20198;-77
2021/06/01 20:28:32;;;;;;;3.63;2.10;;;22.40;70.60;;;;;;5079834;28;20561;-78
2021/06/01 20:31:05;;;;;;;2.30;2.13;;;22.30;71.00;;;;;;5079575;28;20249;-77
2021/06/01 20:33:35;;;;;;;2.22;1.88;;;22.40;72.30;;;;;;5068850;28;20266;-77
2021/06/01 20:36:03;;;;;;;4.70;2.20;;;22.30;74.10;;;;;;5068724;28;20226;-77
2021/06/01 20:38:29;;;;;;;5.68;2.00;;;22.30;71.90;;;;;;5072675;28;20201;-77
2021/06/01 20:40:56;;;;;;;2.30;2.13;;;22.30;73.00;;;;;;5073400;28;20229;-77
2021/06/01 20:43:25;;;;;;;5.63;1.90;;;22.30;74.20;;;;;;5067679;28;20214;-77
2021/06/01 20:45:52;;;;;;;2.15;2.00;;;22.20;74.10;;;;;;5071150;28;20236;-76
2021/06/01 20:48:21;;;;;;;2.95;2.08;;;22.30;74.90;;;;;;5075575;28;20209;-76
2021/06/01 20:50:49;;;;;;;3.97;2.50;;;22.20;73.00;;;;;;5069510;28;20207;-77
2021/06/01 20:53:16;;;;;;;5.60;2.53;;;22.10;74.60;;;;;;5071989;28;20232;-76
2021/06/01 20:55:45;;;;;;;7.43;2.38;;;22.00;72.90;;;;;;5069191;28;20209;-76
2021/06/01 20:58:19;;;;;;;2.13;1.90;;;21.90;71.80;;;;;;5068948;28;20202;-77
2021/06/01 21:00:51;;;;;;;1.65;1.55;;;21.80;73.70;;;;;;5072933;28;20228;-76
2021/06/01 21:03:21;;;;;;;2.17;1.98;;;21.80;74.50;;;;;;5074711;28;20219;-76
2021/06/01 21:05:47;;;;;;;2.85;2.30;;;21.70;73.40;;;;;;5068787;28;20205;-77
2021/06/01 21:08:16;;;;;;;2.45;2.25;;;21.60;75.30;;;;;;5076135;28;20291;-76
2021/06/01 21:10:43;;;;;;;7.05;2.38;;;21.60;75.70;;;;;;5068664;28;20218;-77
2021/06/01 21:13:13;;;;;;;3.50;2.38;;;21.50;75.70;;;;;;5068386;28;20286;-76
2021/06/01 21:15:40;;;;;;;2.40;2.20;;;21.50;76.60;;;;;;5068322;28;20202;-77